Terminal Aerodrome Forecast
Issued by NWS

Home | Current Version | Previous Version | Text Only | Print | Product List | Glossary On
Versions: 1 2 3 4 5 6 7 8 9 10 11 12 13 14 15 16 17 18 19 20 21 22 23 24 25 26
000
FTUS46 KMFR 231013 AAA
TAFOTH
TAF AMD
KOTH 231013Z 2310/2406 36014KT P6SM OVC005
     FM231800 36023G30KT P6SM BKN012
     FM232000 36028G38KT P6SM SKC
     FM240300 36020G25KT 5SM BR OVC003=

USA.gov is the U.S. government's official web portal to all federal, state and local government web resources and services.